createdAt,value
2022-08-14T00:01:55.209Z,17.40
2022-08-14T00:04:41.989Z,17.40
2022-08-14T00:07:15.735Z,17.30
2022-08-14T00:10:02.540Z,17.30
2022-08-14T00:12:48.097Z,17.30
2022-08-14T00:15:25.365Z,17.20
2022-08-14T00:18:04.396Z,17.10
2022-08-14T00:20:42.891Z,17.00
2022-08-14T00:23:16.650Z,17.00
2022-08-14T00:25:53.801Z,17.00
2022-08-14T00:28:35.858Z,17.00
2022-08-14T00:31:08.121Z,17.00
2022-08-14T00:33:50.999Z,17.10
2022-08-14T00:36:35.796Z,17.00
2022-08-14T00:39:18.116Z,16.90
2022-08-14T00:41:54.425Z,16.80
2022-08-14T00:44:31.915Z,16.80
2022-08-14T00:47:13.968Z,16.60
2022-08-14T00:49:43.765Z,16.60
2022-08-14T00:52:22.399Z,16.50
2022-08-14T00:54:57.852Z,16.50
2022-08-14T00:57:30.732Z,16.50
2022-08-14T01:00:34.056Z,16.50
2022-08-14T01:03:09.685Z,16.50
2022-08-14T01:05:41.749Z,16.40
2022-08-14T01:08:51.382Z,16.40
2022-08-14T01:11:20.642Z,16.40
2022-08-14T01:14:01.141Z,16.30
2022-08-14T01:16:31.946Z,16.30
2022-08-14T01:19:21.723Z,16.20
2022-08-14T01:21:53.071Z,16.10
2022-08-14T01:24:30.459Z,16.10
2022-08-14T01:27:00.904Z,16.10
2022-08-14T01:30:01.432Z,16.00
2022-08-14T01:32:37.590Z,16.00
2022-08-14T01:35:19.131Z,15.90
2022-08-14T01:37:54.706Z,15.90
2022-08-14T01:40:41.257Z,15.80
2022-08-14T01:43:21.911Z,15.80
2022-08-14T01:45:57.859Z,15.90
2022-08-14T01:48:39.901Z,15.90
2022-08-14T01:51:23.741Z,15.90
2022-08-14T01:54:02.005Z,15.90
2022-08-14T01:56:40.515Z,15.80
2022-08-14T01:59:37.974Z,15.80
2022-08-14T02:02:19.942Z,15.80
2022-08-14T02:05:15.138Z,15.70
2022-08-14T02:08:08.794Z,15.70
2022-08-14T02:10:46.463Z,15.60
2022-08-14T02:13:26.976Z,15.60
2022-08-14T02:16:21.983Z,15.60
2022-08-14T02:18:56.019Z,15.60
2022-08-14T02:21:43.741Z,15.50
2022-08-14T02:24:39.573Z,15.50
2022-08-14T02:28:24.521Z,15.40
2022-08-14T02:30:02.015Z,15.30
2022-08-14T02:32:45.299Z,15.30
2022-08-14T02:35:18.831Z,15.20
2022-08-14T02:37:49.299Z,15.20
2022-08-14T02:40:32.278Z,15.10
2022-08-14T02:43:01.201Z,15.10
2022-08-14T02:45:37.927Z,15.10
2022-08-14T02:49:00.970Z,15.00
2022-08-14T02:50:57.109Z,15.00
2022-08-14T02:53:31.552Z,15.10
2022-08-14T02:56:02.917Z,15.10
2022-08-14T02:58:33.426Z,15.20
2022-08-14T03:01:01.238Z,15.20
2022-08-14T03:03:31.891Z,15.20
2022-08-14T03:06:03.405Z,15.30
2022-08-14T03:08:33.689Z,15.20
2022-08-14T03:11:07.745Z,15.10
2022-08-14T03:13:47.404Z,15.00
2022-08-14T03:16:19.899Z,15.00
2022-08-14T03:19:00.616Z,15.00
2022-08-14T03:21:31.405Z,14.90
2022-08-14T03:24:01.314Z,15.00
2022-08-14T03:26:30.429Z,14.90
2022-08-14T03:29:00.977Z,14.90
2022-08-14T03:31:29.400Z,14.80
2022-08-14T03:34:00.271Z,14.80
2022-08-14T03:37:38.762Z,14.70
2022-08-14T03:39:22.236Z,14.70
2022-08-14T03:41:52.690Z,14.70
2022-08-14T03:45:26.593Z,14.70
2022-08-14T03:47:06.941Z,14.60
2022-08-14T03:49:36.276Z,14.70
2022-08-14T03:52:37.869Z,14.60
2022-08-14T03:54:56.149Z,14.60
2022-08-14T03:57:23.740Z,14.60
2022-08-14T03:59:50.942Z,14.60
2022-08-14T04:02:32.940Z,14.60
2022-08-14T04:05:12.820Z,14.60
2022-08-14T04:07:49.541Z,14.60
2022-08-14T04:10:31.857Z,14.70
2022-08-14T04:13:03.064Z,14.60
2022-08-14T04:15:32.111Z,14.60
2022-08-14T04:18:19.101Z,14.60
2022-08-14T04:20:54.477Z,14.50
2022-08-14T04:23:29.584Z,14.50
2022-08-14T04:26:04.766Z,14.50
2022-08-14T04:29:05.418Z,14.50
2022-08-14T04:32:57.526Z,14.50
2022-08-14T04:34:20.794Z,14.60
2022-08-14T04:37:12.765Z,14.70
2022-08-14T04:39:58.890Z,14.70
2022-08-14T04:42:47.352Z,14.80
2022-08-14T04:45:20.977Z,14.70
2022-08-14T04:48:06.393Z,14.80
2022-08-14T04:50:44.305Z,14.80
2022-08-14T04:53:23.119Z,14.80
2022-08-14T04:55:53.662Z,14.90
2022-08-14T04:58:32.790Z,14.90
2022-08-14T05:01:03.456Z,15.00
2022-08-14T05:03:33.455Z,15.10
2022-08-14T05:06:03.120Z,15.10
2022-08-14T05:08:56.724Z,15.20
2022-08-14T05:11:19.854Z,15.30
2022-08-14T05:16:34.066Z,15.40
2022-08-14T05:19:24.987Z,15.40
2022-08-14T05:21:59.741Z,15.50
2022-08-14T05:24:29.475Z,15.60
2022-08-14T05:26:56.633Z,15.60
2022-08-14T05:29:23.626Z,15.70
2022-08-14T05:31:57.382Z,15.80
2022-08-14T05:34:31.658Z,15.90
2022-08-14T05:37:03.554Z,16.10
2022-08-14T05:39:33.529Z,16.20
2022-08-14T05:42:00.950Z,16.20
2022-08-14T05:44:36.949Z,16.30
2022-08-14T05:47:04.470Z,16.40
2022-08-14T05:49:33.064Z,16.60
2022-08-14T05:52:02.484Z,16.70
2022-08-14T05:54:35.621Z,16.80
2022-08-14T05:57:04.861Z,16.90
2022-08-14T05:59:39.248Z,16.90
2022-08-14T06:02:10.970Z,17.10
2022-08-14T06:04:39.166Z,17.20
2022-08-14T06:07:06.398Z,17.30
2022-08-14T06:09:35.818Z,17.50
2022-08-14T06:12:11.850Z,17.50
2022-08-14T06:14:39.462Z,17.80
2022-08-14T06:17:07.183Z,17.80
2022-08-14T06:19:37.064Z,17.90
2022-08-14T06:22:04.211Z,18.00
2022-08-14T06:24:34.843Z,18.10
2022-08-14T06:27:06.468Z,18.30
2022-08-14T06:29:38.189Z,18.40
2022-08-14T06:32:36.456Z,18.50
2022-08-14T06:35:10.611Z,18.70
2022-08-14T06:37:49.946Z,18.90
2022-08-14T06:40:26.870Z,19.10
2022-08-14T06:43:22.921Z,19.30
2022-08-14T06:45:54.518Z,19.50
2022-08-14T06:48:25.710Z,19.60
2022-08-14T06:50:54.093Z,19.80
2022-08-14T06:53:22.254Z,20.00
2022-08-14T06:56:00.691Z,20.10
2022-08-14T06:58:30.762Z,20.30
2022-08-14T07:01:25.066Z,20.40
2022-08-14T07:04:22.535Z,20.60
2022-08-14T07:06:50.501Z,20.90
2022-08-14T07:09:22.667Z,21.10
2022-08-14T07:11:50.983Z,21.30
2022-08-14T07:14:18.044Z,21.50
2022-08-14T07:16:48.076Z,21.70
2022-08-14T07:19:17.945Z,21.80
2022-08-14T07:21:48.057Z,22.00
2022-08-14T07:24:21.803Z,22.20
2022-08-14T07:26:53.577Z,22.30
2022-08-14T07:29:26.074Z,22.50
2022-08-14T07:31:53.706Z,23.00
2022-08-14T07:34:26.330Z,24.40
2022-08-14T07:37:04.614Z,26.50
2022-08-14T07:39:34.341Z,28.60
2022-08-14T07:42:01.992Z,30.60
2022-08-14T07:44:35.769Z,32.70
2022-08-14T07:47:13.008Z,34.40
2022-08-14T07:49:41.921Z,35.80
2022-08-14T07:52:10.818Z,36.30
2022-08-14T07:54:41.689Z,36.60
2022-08-14T07:57:12.043Z,37.70
2022-08-14T07:59:44.282Z,38.80
2022-08-14T08:02:17.068Z,38.90
2022-08-14T08:04:55.215Z,39.40
2022-08-14T08:07:30.814Z,39.70
2022-08-14T08:09:59.974Z,40.60
2022-08-14T08:12:31.008Z,40.50
2022-08-14T08:15:02.646Z,41.10
2022-08-14T08:17:53.488Z,40.80
2022-08-14T08:20:27.780Z,41.20
2022-08-14T08:23:00.489Z,41.10
2022-08-14T08:25:40.194Z,40.70
2022-08-14T08:28:19.912Z,39.80
2022-08-14T08:31:05.298Z,40.30
2022-08-14T08:33:37.301Z,40.10
2022-08-14T08:36:08.140Z,39.50
2022-08-14T08:39:17.567Z,40.20
2022-08-14T08:41:28.022Z,41.30
2022-08-14T08:44:05.776Z,42.20
2022-08-14T08:46:44.827Z,42.60
2022-08-14T08:49:14.950Z,41.90
2022-08-14T08:51:43.067Z,40.20
2022-08-14T08:54:18.164Z,40.90
2022-08-14T08:56:52.360Z,41.10
2022-08-14T08:59:34.087Z,40.60
2022-08-14T09:02:10.193Z,41.10
2022-08-14T09:04:45.471Z,41.20
2022-08-14T09:07:25.869Z,41.70
2022-08-14T09:09:59.348Z,41.70
2022-08-14T09:12:32.370Z,42.60
2022-08-14T09:15:02.414Z,42.50
2022-08-14T09:17:29.508Z,43.00
2022-08-14T09:19:57.707Z,43.00
2022-08-14T09:22:34.880Z,42.10
2022-08-14T09:25:07.270Z,41.30
2022-08-14T09:27:36.872Z,41.20
2022-08-14T09:30:12.709Z,41.20
2022-08-14T09:33:09.124Z,40.30
2022-08-14T09:36:27.208Z,40.40
2022-08-14T09:39:23.599Z,40.80
2022-08-14T09:42:20.245Z,40.50
2022-08-14T09:45:19.006Z,40.60
2022-08-14T09:47:51.849Z,41.10
2022-08-14T09:50:20.768Z,42.70
2022-08-14T09:52:56.720Z,43.20
2022-08-14T09:55:27.925Z,43.30
2022-08-14T09:58:19.595Z,42.40
2022-08-14T10:00:54.449Z,41.40
2022-08-14T10:03:33.810Z,39.70
2022-08-14T10:06:13.756Z,39.20
2022-08-14T10:08:52.015Z,40.40
2022-08-14T10:11:19.561Z,39.80
2022-08-14T10:13:56.840Z,39.60
2022-08-14T10:16:33.413Z,40.20
2022-08-14T10:19:10.591Z,39.90
2022-08-14T10:21:58.672Z,40.70
2022-08-14T10:24:36.839Z,40.30
2022-08-14T10:27:05.147Z,41.20
2022-08-14T10:29:41.007Z,40.60
2022-08-14T10:32:17.632Z,39.40
2022-08-14T10:35:06.676Z,38.60
2022-08-14T10:37:48.571Z,37.00
2022-08-14T10:40:38.515Z,38.00
2022-08-14T10:43:31.778Z,38.50
2022-08-14T10:46:05.333Z,37.90
2022-08-14T10:49:05.297Z,38.20
2022-08-14T10:51:39.892Z,35.80
2022-08-14T10:54:26.178Z,35.20
2022-08-14T10:57:20.320Z,35.60
2022-08-14T10:59:56.609Z,34.40
2022-08-14T11:02:54.010Z,33.60
2022-08-14T11:05:24.940Z,33.30
2022-08-14T11:07:55.426Z,34.60
2022-08-14T11:10:27.760Z,36.70
2022-08-14T11:12:57.992Z,37.60
2022-08-14T11:15:28.270Z,36.90
2022-08-14T11:17:56.475Z,35.30
2022-08-14T11:20:31.734Z,35.60
2022-08-14T11:23:01.496Z,36.10
2022-08-14T11:25:36.796Z,37.00
2022-08-14T11:28:19.252Z,38.50
2022-08-14T11:30:54.293Z,38.00
2022-08-14T11:33:29.193Z,36.60
2022-08-14T11:35:59.530Z,35.10
2022-08-14T11:38:29.140Z,33.90
2022-08-14T11:41:00.371Z,33.20
2022-08-14T11:43:30.598Z,33.70
2022-08-14T11:46:03.849Z,34.30
2022-08-14T11:49:02.018Z,35.60
2022-08-14T11:51:36.263Z,35.90
2022-08-14T11:54:19.596Z,35.10
2022-08-14T11:56:49.962Z,35.00
2022-08-14T11:59:20.030Z,34.80
2022-08-14T12:01:54.975Z,34.30
2022-08-14T12:04:33.284Z,34.10
2022-08-14T12:07:01.835Z,33.60
2022-08-14T12:09:37.126Z,33.80
2022-08-14T12:12:35.977Z,34.50
2022-08-14T12:15:06.847Z,35.10
2022-08-14T12:17:55.804Z,34.30
2022-08-14T12:20:34.349Z,33.80
2022-08-14T12:23:05.428Z,33.60
2022-08-14T12:25:34.729Z,32.70
2022-08-14T12:28:10.287Z,32.90
2022-08-14T12:30:56.735Z,33.20
2022-08-14T12:33:33.400Z,33.10
2022-08-14T12:36:04.493Z,33.60
2022-08-14T12:38:35.867Z,33.90
2022-08-14T12:41:05.482Z,32.80
2022-08-14T12:43:34.232Z,32.40
2022-08-14T12:46:01.961Z,32.50
2022-08-14T12:48:32.108Z,32.30
2022-08-14T12:50:59.763Z,32.50
2022-08-14T12:53:38.353Z,32.40
2022-08-14T12:56:22.286Z,32.60
2022-08-14T12:58:59.222Z,33.10
2022-08-14T13:01:31.780Z,33.50
2022-08-14T13:04:18.928Z,33.40
2022-08-14T13:06:50.983Z,33.30
2022-08-14T13:09:19.427Z,32.90
2022-08-14T13:11:59.043Z,32.50
2022-08-14T13:14:38.875Z,31.90
2022-08-14T13:17:07.529Z,31.60
2022-08-14T13:19:40.573Z,31.60
2022-08-14T13:22:10.284Z,31.40
2022-08-14T13:24:55.296Z,30.90
2022-08-14T13:27:25.843Z,30.90
2022-08-14T13:29:58.936Z,31.20
2022-08-14T13:32:26.035Z,31.60
2022-08-14T13:34:53.038Z,31.80
2022-08-14T13:37:19.937Z,31.90
2022-08-14T13:39:57.111Z,32.20
2022-08-14T13:42:30.662Z,32.40
2022-08-14T13:45:01.595Z,32.50
2022-08-14T13:47:30.575Z,32.40
2022-08-14T13:50:02.726Z,32.40
2022-08-14T13:52:51.564Z,32.10
2022-08-14T13:55:28.814Z,32.30
2022-08-14T13:58:04.448Z,32.40
2022-08-14T14:00:53.557Z,32.40
2022-08-14T14:03:24.548Z,32.40
2022-08-14T14:05:55.692Z,32.10
2022-08-14T14:08:43.780Z,32.10
2022-08-14T14:11:15.745Z,32.30
2022-08-14T14:13:46.397Z,32.10
2022-08-14T14:16:25.967Z,32.20
2022-08-14T14:19:06.892Z,32.10
2022-08-14T14:21:37.981Z,32.20
2022-08-14T14:24:07.736Z,32.10
2022-08-14T14:26:36.040Z,32.20
2022-08-14T14:29:07.670Z,32.10
2022-08-14T14:31:39.000Z,31.80
2022-08-14T14:34:29.301Z,31.60
2022-08-14T14:37:03.476Z,31.30
2022-08-14T14:39:35.176Z,30.80
2022-08-14T14:42:06.486Z,30.50
2022-08-14T14:44:40.177Z,30.40
2022-08-14T14:47:11.845Z,30.50
2022-08-14T14:49:51.028Z,30.70
2022-08-14T14:52:27.568Z,31.00
2022-08-14T14:54:59.390Z,31.20
2022-08-14T14:57:35.006Z,31.30
2022-08-14T15:00:12.591Z,31.40
2022-08-14T15:02:51.610Z,31.30
2022-08-14T15:05:20.157Z,31.20
2022-08-14T15:07:49.656Z,31.20
2022-08-14T15:10:28.118Z,31.20
2022-08-14T15:13:00.239Z,31.30
2022-08-14T15:15:32.738Z,31.30
2022-08-14T15:18:01.128Z,31.60
2022-08-14T15:20:29.916Z,31.30
2022-08-14T15:23:00.937Z,31.40
2022-08-14T15:25:35.702Z,31.60
2022-08-14T15:28:02.892Z,31.60
2022-08-14T15:30:32.819Z,31.80
2022-08-14T15:33:00.523Z,31.90
2022-08-14T15:35:29.752Z,31.90
2022-08-14T15:38:08.719Z,32.00
2022-08-14T15:40:41.379Z,31.90
2022-08-14T15:43:12.782Z,31.60
2022-08-14T15:45:41.489Z,31.30
2022-08-14T15:48:14.150Z,31.10
2022-08-14T15:50:50.922Z,30.90
2022-08-14T15:53:18.846Z,30.80
2022-08-14T15:55:46.587Z,30.70
2022-08-14T15:58:14.915Z,30.60
2022-08-14T16:01:00.210Z,30.60
2022-08-14T16:03:35.181Z,30.90
2022-08-14T16:06:11.103Z,31.10
2022-08-14T16:08:58.511Z,31.40
2022-08-14T16:11:32.616Z,31.60
2022-08-14T16:13:59.847Z,31.60
2022-08-14T16:16:34.655Z,31.60
2022-08-14T16:19:19.625Z,31.40
2022-08-14T16:22:01.446Z,31.30
2022-08-14T16:25:02.587Z,31.20
2022-08-14T16:27:38.672Z,30.90
2022-08-14T16:30:24.898Z,30.80
2022-08-14T16:32:59.068Z,30.70
2022-08-14T16:35:42.847Z,30.60
2022-08-14T16:38:35.691Z,30.50
2022-08-14T16:41:18.207Z,30.50
2022-08-14T16:43:52.360Z,30.40
2022-08-14T16:46:22.258Z,30.40
2022-08-14T16:48:55.581Z,30.20
2022-08-14T16:51:26.118Z,30.10
2022-08-14T16:53:59.033Z,30.00
2022-08-14T16:56:30.861Z,30.00
2022-08-14T16:59:30.756Z,29.90
2022-08-14T17:02:11.706Z,29.90
2022-08-14T17:04:41.074Z,29.90
2022-08-14T17:07:13.855Z,29.80
2022-08-14T17:09:45.562Z,29.80
2022-08-14T17:12:28.518Z,29.70
2022-08-14T17:15:11.186Z,29.60
2022-08-14T17:17:50.000Z,29.50
2022-08-14T17:20:39.553Z,29.50
2022-08-14T17:23:13.687Z,29.40
2022-08-14T17:25:50.874Z,29.30
2022-08-14T17:28:51.302Z,29.20
2022-08-14T17:31:12.143Z,29.10
2022-08-14T17:33:40.951Z,29.00
2022-08-14T17:36:11.318Z,29.00
2022-08-14T17:39:02.778Z,29.00
2022-08-14T17:41:43.570Z,28.80
2022-08-14T17:44:22.031Z,28.70
2022-08-14T17:47:06.843Z,28.60
2022-08-14T17:49:55.567Z,28.50
2022-08-14T17:52:35.809Z,28.40
2022-08-14T17:56:00.192Z,28.40
2022-08-14T17:57:59.245Z,28.20
2022-08-14T18:00:26.420Z,28.10
2022-08-14T18:02:57.808Z,27.90
2022-08-14T18:06:09.763Z,27.80
2022-08-14T18:08:32.461Z,27.60
2022-08-14T18:11:03.331Z,27.50
2022-08-14T18:13:49.973Z,27.40
2022-08-14T18:16:19.875Z,27.20
2022-08-14T18:18:51.103Z,27.00
2022-08-14T18:21:42.449Z,26.90
2022-08-14T18:24:27.990Z,26.70
2022-08-14T18:27:09.388Z,26.50
2022-08-14T18:29:55.252Z,26.40
2022-08-14T18:32:31.682Z,26.30
2022-08-14T18:35:13.125Z,26.10
2022-08-14T18:37:41.668Z,26.00
2022-08-14T18:40:17.897Z,25.90
2022-08-14T18:42:52.172Z,25.70
2022-08-14T18:45:29.004Z,25.60
2022-08-14T18:48:18.561Z,25.50
2022-08-14T18:51:02.879Z,25.40
2022-08-14T18:53:59.456Z,25.30
2022-08-14T18:57:05.201Z,25.20
2022-08-14T18:59:43.473Z,25.10
2022-08-14T19:02:30.541Z,25.00
2022-08-14T19:05:02.515Z,24.80
2022-08-14T19:07:34.106Z,24.70
2022-08-14T19:10:17.149Z,24.60
2022-08-14T19:12:53.386Z,24.50
2022-08-14T19:15:35.764Z,24.40
2022-08-14T19:18:26.063Z,24.30
2022-08-14T19:21:13.524Z,24.30
2022-08-14T19:23:44.056Z,24.20
2022-08-14T19:26:36.932Z,24.20
2022-08-14T19:29:38.351Z,24.20
2022-08-14T19:32:36.745Z,24.10
2022-08-14T19:35:17.061Z,24.10
2022-08-14T19:37:52.483Z,24.10
2022-08-14T19:40:42.802Z,24.10
2022-08-14T19:43:22.644Z,24.00
2022-08-14T19:46:39.193Z,24.00
2022-08-14T19:48:57.225Z,23.90
2022-08-14T19:51:24.959Z,23.90
2022-08-14T19:54:13.734Z,23.80
2022-08-14T19:56:45.609Z,23.70
2022-08-14T19:59:18.279Z,23.70
2022-08-14T20:01:49.992Z,23.60
2022-08-14T20:04:46.807Z,23.60
2022-08-14T20:07:56.074Z,23.50
2022-08-14T20:11:04.708Z,23.40
2022-08-14T20:13:23.628Z,23.20
2022-08-14T20:15:51.089Z,23.10
2022-08-14T20:18:49.042Z,23.00
2022-08-14T20:21:13.764Z,22.90
2022-08-14T20:23:42.076Z,22.90
2022-08-14T20:26:31.595Z,22.90
2022-08-14T20:29:05.227Z,22.80
2022-08-14T20:31:36.910Z,22.80
2022-08-14T20:34:24.527Z,22.80
2022-08-14T20:37:22.526Z,22.60
2022-08-14T20:39:54.196Z,22.50
2022-08-14T20:42:43.588Z,22.50
2022-08-14T20:45:27.545Z,22.40
2022-08-14T20:48:09.126Z,22.30
2022-08-14T20:50:45.108Z,22.20
2022-08-14T20:53:34.173Z,22.10
2022-08-14T20:56:29.955Z,22.00
2022-08-14T20:58:57.926Z,21.90
2022-08-14T21:01:24.785Z,21.70
2022-08-14T21:04:11.868Z,21.70
2022-08-14T21:07:23.291Z,21.60
2022-08-14T21:10:05.735Z,21.50
2022-08-14T21:12:33.430Z,21.50
2022-08-14T21:15:03.889Z,21.40
2022-08-14T21:17:32.110Z,21.30
2022-08-14T21:20:25.784Z,21.30
2022-08-14T21:22:56.523Z,21.30
2022-08-14T21:25:31.528Z,21.30
2022-08-14T21:28:04.045Z,21.30
2022-08-14T21:30:51.961Z,21.40
2022-08-14T21:33:21.688Z,21.40
2022-08-14T21:35:55.554Z,21.50
2022-08-14T21:38:33.478Z,21.50
2022-08-14T21:41:42.534Z,21.60
2022-08-14T21:44:17.618Z,21.70
2022-08-14T21:46:56.770Z,21.70
2022-08-14T21:49:37.453Z,21.50
2022-08-14T21:52:51.280Z,21.40
2022-08-14T21:55:09.370Z,21.30
2022-08-14T21:58:46.421Z,21.20
2022-08-14T22:00:36.684Z,21.10
2022-08-14T22:03:10.021Z,21.00
2022-08-14T22:05:41.724Z,20.90
2022-08-14T22:08:14.107Z,20.80
2022-08-14T22:10:44.592Z,20.80
2022-08-14T22:13:12.141Z,20.70
2022-08-14T22:15:43.876Z,20.60
2022-08-14T22:18:20.228Z,20.50
2022-08-14T22:20:53.943Z,20.40
2022-08-14T22:23:24.018Z,20.30
2022-08-14T22:25:52.402Z,20.30
2022-08-14T22:28:33.180Z,20.20
2022-08-14T22:31:02.192Z,20.10
2022-08-14T22:33:31.081Z,20.10
2022-08-14T22:36:00.328Z,20.00
2022-08-14T22:38:35.536Z,19.90
2022-08-14T22:41:26.627Z,19.90
2022-08-14T22:43:59.256Z,19.70
2022-08-14T22:46:27.045Z,19.70
2022-08-14T22:48:55.096Z,19.60
2022-08-14T22:51:27.575Z,19.60
2022-08-14T22:53:56.009Z,19.60
2022-08-14T22:56:29.262Z,19.50
2022-08-14T22:58:58.828Z,19.40
2022-08-14T23:01:56.847Z,19.30
2022-08-14T23:04:34.908Z,19.30
2022-08-14T23:07:21.770Z,19.20
2022-08-14T23:09:56.629Z,19.20
2022-08-14T23:12:28.246Z,19.20
2022-08-14T23:14:56.248Z,19.10
2022-08-14T23:17:23.167Z,18.90
2022-08-14T23:19:56.352Z,18.90
2022-08-14T23:22:26.283Z,18.80
2022-08-14T23:24:57.776Z,18.80
2022-08-14T23:27:31.926Z,18.80
2022-08-14T23:30:34.215Z,18.80
2022-08-14T23:33:02.915Z,18.80
2022-08-14T23:35:33.170Z,18.80
2022-08-14T23:38:05.561Z,18.80
2022-08-14T23:40:48.571Z,18.70
2022-08-14T23:43:16.597Z,18.80
2022-08-14T23:45:48.855Z,18.80
2022-08-14T23:48:21.249Z,18.90
2022-08-14T23:50:52.424Z,18.90
2022-08-14T23:53:48.103Z,18.90
2022-08-14T23:56:30.427Z,18.90
2022-08-14T23:59:01.842Z,18.90
